Time;durP1;ratioP1;P1;durP2;ratioP2;P2;SDS_P1;SDS_P2;PMS_P1;PMS_P2;Temp;Humidity;BMP_temperature;BMP_pressure;BME280_temperature;BME280_humidity;BME280_pressure;Samples;Min_cycle;Max_cycle;Signal;HPM_P1;HPM_P2
2022/06/03 00:00:59;;;;;;;5.37;3.57;;;8.10;99.90;;;;;;5013505;28;20416;-85
2022/06/03 00:03:41;;;;;;;6.53;3.27;;;8.10;99.90;;;;;;4996676;28;20818;-85
2022/06/03 00:06:39;;;;;;;6.20;2.77;;;8.10;99.90;;;;;;5015602;28;20435;-86
2022/06/03 00:09:33;;;;;;;6.77;3.37;;;8.10;99.90;;;;;;5033259;28;20423;-85
2022/06/03 00:12:23;;;;;;;7.50;3.07;;;8.10;99.90;;;;;;5033215;28;20530;-85
2022/06/03 00:15:17;;;;;;;3.73;2.63;;;8.00;99.90;;;;;;5015664;28;20571;-86
2022/06/03 00:18:25;;;;;;;4.93;3.00;;;7.80;99.90;;;;;;5033382;28;20434;-85
2022/06/03 00:21:07;;;;;;;3.73;3.33;;;7.80;99.90;;;;;;4999944;28;20947;-86
2022/06/03 00:23:57;;;;;;;6.13;3.00;;;7.80;99.90;;;;;;5032796;28;20424;-84
2022/06/03 00:27:03;;;;;;;3.50;2.87;;;7.80;99.90;;;;;;5015252;28;20546;-84
2022/06/03 00:29:51;;;;;;;4.50;3.40;;;7.80;99.90;;;;;;5022303;28;20437;-86
2022/06/03 00:32:42;;;;;;;5.73;3.17;;;7.80;99.90;;;;;;4995320;28;20519;-86
2022/06/03 00:35:10;;;;;;;6.87;3.70;;;7.90;99.90;;;;;;5009722;28;20489;-85
2022/06/03 00:37:45;;;;;;;6.97;3.50;;;7.80;99.90;;;;;;5032786;28;20422;-85
2022/06/03 00:40:10;;;;;;;13.40;3.90;;;7.70;99.90;;;;;;5033139;28;20415;-86
2022/06/03 00:43:17;;;;;;;6.00;2.93;;;7.60;99.90;;;;;;5014786;28;20513;-85
2022/06/03 00:46:13;;;;;;;6.27;2.80;;;7.50;99.90;;;;;;5019168;28;20219;-87
2022/06/03 00:49:21;;;;;;;5.93;3.70;;;7.50;99.90;;;;;;5033036;28;20410;-86
2022/06/03 00:52:05;;;;;;;5.53;3.90;;;7.50;99.90;;;;;;4978037;28;20427;-85
2022/06/03 00:55:14;;;;;;;7.13;2.73;;;7.50;99.90;;;;;;5032660;28;20434;-85
2022/06/03 00:58:02;;;;;;;5.90;4.07;;;7.40;99.90;;;;;;5014431;28;20787;-84
2022/06/03 01:00:36;;;;;;;7.67;3.50;;;7.30;99.90;;;;;;5014463;28;20427;-85
2022/06/03 01:03:35;;;;;;;5.10;3.47;;;7.30;99.90;;;;;;4995300;28;20414;-85
2022/06/03 01:06:00;;;;;;;5.80;3.63;;;7.40;99.90;;;;;;5012750;28;20423;-84
2022/06/03 01:08:44;;;;;;;4.17;2.37;;;7.30;99.90;;;;;;5012775;28;20971;-85
2022/06/03 01:11:36;;;;;;;4.00;2.60;;;7.20;99.90;;;;;;5012815;28;20206;-85
2022/06/03 01:14:13;;;;;;;5.90;4.03;;;7.30;99.90;;;;;;5012752;28;20507;-86
2022/06/03 01:16:56;;;;;;;5.33;3.57;;;7.30;99.90;;;;;;5013171;28;20411;-85
2022/06/03 01:19:27;;;;;;;3.30;2.93;;;7.20;99.90;;;;;;5012691;28;20425;-84
2022/06/03 01:22:22;;;;;;;7.13;3.50;;;7.30;99.90;;;;;;5012661;28;20413;-84
2022/06/03 01:25:10;;;;;;;3.60;3.10;;;7.20;99.90;;;;;;4995241;28;20551;-86
2022/06/03 01:28:09;;;;;;;6.37;3.23;;;7.10;99.90;;;;;;5012499;28;20421;-86
2022/06/03 01:31:01;;;;;;;5.50;2.83;;;7.10;99.90;;;;;;5013451;28;20866;-85
2022/06/03 01:33:51;;;;;;;6.07;4.03;;;7.00;99.90;;;;;;5031823;28;20420;-86
2022/06/03 01:37:03;;;;;;;4.07;3.40;;;7.00;99.90;;;;;;5031072;28;20414;-86
2022/06/03 01:39:41;;;;;;;4.47;3.97;;;7.00;99.90;;;;;;5051017;28;20410;-86
2022/06/03 01:42:38;;;;;;;6.23;4.07;;;6.90;99.90;;;;;;5040893;28;20429;-85
2022/06/03 01:45:27;;;;;;;6.33;3.57;;;6.80;99.90;;;;;;5031967;28;20536;-85
2022/06/03 01:48:23;;;;;;;3.10;2.13;;;6.80;99.90;;;;;;5019384;28;20443;-86
2022/06/03 01:51:01;;;;;;;5.90;2.50;;;6.80;99.90;;;;;;5036208;28;20405;-85
2022/06/03 01:53:55;;;;;;;4.97;3.07;;;6.90;99.90;;;;;;5035996;28;20452;-85
2022/06/03 01:56:38;;;;;;;6.63;3.37;;;6.90;99.90;;;;;;5018045;28;20428;-86
2022/06/03 01:59:33;;;;;;;4.43;3.50;;;6.90;99.90;;;;;;5045531;28;20751;-85
2022/06/03 02:02:25;;;;;;;6.30;4.00;;;6.90;99.90;;;;;;4975238;28;20456;-87
2022/06/03 02:05:25;;;;;;;6.10;3.83;;;6.90;99.90;;;;;;4959400;28;21042;-85
2022/06/03 02:08:38;;;;;;;6.53;4.47;;;6.80;99.90;;;;;;4975319;28;20420;-86
2022/06/03 02:11:44;;;;;;;7.83;4.77;;;6.90;99.90;;;;;;4945607;28;20448;-86
2022/06/03 02:14:46;;;;;;;5.87;4.10;;;6.80;99.90;;;;;;4975387;28;20411;-86
2022/06/03 02:17:26;;;;;;;6.67;4.93;;;6.80;99.90;;;;;;4959054;28;20428;-86
2022/06/03 02:20:45;;;;;;;7.93;4.67;;;6.80;99.90;;;;;;4975333;28;20414;-86
2022/06/03 02:23:44;;;;;;;8.80;4.73;;;6.90;99.90;;;;;;4975059;28;20419;-85
2022/06/03 02:26:56;;;;;;;8.70;5.10;;;6.90;99.90;;;;;;4975183;28;20511;-85
2022/06/03 02:32:35;;;;;;;6.67;3.93;;;6.90;99.90;;;;;;4991010;28;20481;-85
2022/06/03 02:35:19;;;;;;;6.17;4.97;;;6.90;99.90;;;;;;5018144;28;20482;-86
2022/06/03 02:38:22;;;;;;;8.23;5.10;;;6.80;99.90;;;;;;5035755;28;20406;-85
2022/06/03 02:41:24;;;;;;;7.37;4.20;;;6.90;99.90;;;;;;5035860;28;20441;-84
2022/06/03 02:44:11;;;;;;;7.63;5.47;;;6.80;99.90;;;;;;5035243;28;20462;-85
2022/06/03 02:47:01;;;;;;;6.60;5.13;;;6.80;99.90;;;;;;5035563;28;20773;-83
2022/06/03 02:50:09;;;;;;;7.13;5.30;;;6.60;99.90;;;;;;5018155;28;20518;-83
2022/06/03 02:52:52;;;;;;;5.90;4.83;;;6.80;99.90;;;;;;5035684;28;20776;-85
2022/06/03 02:55:18;;;;;;;8.43;5.60;;;7.00;99.90;;;;;;5035518;28;20411;-85
2022/06/03 02:58:05;;;;;;;6.23;5.30;;;7.10;99.90;;;;;;5016494;28;20844;-85
2022/06/03 03:01:08;;;;;;;5.70;4.23;;;6.90;99.90;;;;;;5017673;28;20185;-83
2022/06/03 03:03:59;;;;;;;6.87;4.60;;;6.90;99.90;;;;;;5017350;28;20431;-85
2022/06/03 03:06:40;;;;;;;6.93;4.20;;;6.80;99.90;;;;;;5035247;28;20760;-85
2022/06/03 03:09:48;;;;;;;6.67;4.73;;;6.80;99.90;;;;;;5035306;28;20414;-84
2022/06/03 03:12:45;;;;;;;6.87;4.33;;;6.80;99.90;;;;;;5034793;28;20416;-85
2022/06/03 03:15:23;;;;;;;7.33;4.63;;;6.90;99.90;;;;;;5035087;28;20413;-85
2022/06/03 03:18:30;;;;;;;12.67;6.17;;;6.90;99.90;;;;;;5035108;28;20460;-85
2022/06/03 03:21:11;;;;;;;9.90;5.77;;;6.90;99.90;;;;;;5035115;28;20452;-85
2022/06/03 03:24:00;;;;;;;11.20;5.00;;;6.80;99.90;;;;;;5034764;28;20418;-85
2022/06/03 03:26:36;;;;;;;7.53;6.50;;;6.80;99.90;;;;;;5034786;28;20518;-84
2022/06/03 03:29:44;;;;;;;7.47;5.50;;;6.80;99.90;;;;;;5034771;28;20413;-85
2022/06/03 03:32:34;;;;;;;9.83;6.40;;;6.80;99.90;;;;;;4916462;28;20428;-84
2022/06/03 03:35:21;;;;;;;9.00;5.73;;;6.70;99.90;;;;;;5014949;28;20435;-85
2022/06/03 03:38:05;;;;;;;20.37;7.80;;;6.80;99.90;;;;;;5014981;28;20804;-85
2022/06/03 03:40:52;;;;;;;11.77;7.23;;;7.00;99.90;;;;;;5014960;28;20488;-85
2022/06/03 03:43:59;;;;;;;9.43;6.93;;;7.00;99.90;;;;;;5014398;28;20436;-84
2022/06/03 03:46:43;;;;;;;12.87;8.00;;;7.00;99.90;;;;;;5014720;28;20838;-85
2022/06/03 03:49:27;;;;;;;14.13;7.70;;;7.10;99.90;;;;;;5014734;28;20846;-84
2022/06/03 03:52:08;;;;;;;16.20;7.77;;;7.20;99.90;;;;;;5014569;28;20414;-86
2022/06/03 03:54:53;;;;;;;13.30;7.83;;;7.20;99.90;;;;;;5014600;28;20401;-86
2022/06/03 03:58:01;;;;;;;13.17;8.07;;;7.30;99.90;;;;;;5014235;28;20437;-85
2022/06/03 04:00:45;;;;;;;17.23;7.30;;;7.30;99.90;;;;;;5014445;28;20416;-86
2022/06/03 04:03:38;;;;;;;12.50;7.77;;;7.30;99.90;;;;;;5014344;28;20914;-85
2022/06/03 04:06:39;;;;;;;11.03;8.13;;;7.30;99.90;;;;;;4996775;28;20448;-85
2022/06/03 04:09:31;;;;;;;16.73;7.60;;;7.40;99.90;;;;;;5014198;28;20423;-85
2022/06/03 04:12:02;;;;;;;12.03;7.90;;;7.40;99.90;;;;;;4996451;28;20428;-85
2022/06/03 04:14:43;;;;;;;11.93;8.00;;;7.50;99.90;;;;;;5014289;28;20415;-84
2022/06/03 04:17:49;;;;;;;9.97;8.10;;;7.50;99.90;;;;;;4996640;28;20421;-84
2022/06/03 04:20:20;;;;;;;11.93;7.50;;;7.50;99.90;;;;;;5014142;28;20426;-84
2022/06/03 04:23:10;;;;;;;9.23;7.10;;;7.50;99.90;;;;;;5014255;28;20474;-84
2022/06/03 04:25:54;;;;;;;11.13;7.40;;;7.60;99.90;;;;;;5013936;28;20811;-84
2022/06/03 04:28:52;;;;;;;11.17;8.77;;;7.60;99.90;;;;;;5013627;28;20499;-85
2022/06/03 04:31:51;;;;;;;9.80;8.10;;;7.70;99.90;;;;;;5030284;28;20824;-86
2022/06/03 04:34:55;;;;;;;9.43;6.63;;;7.80;99.90;;;;;;5033949;28;20444;-85
2022/06/03 04:37:55;;;;;;;8.17;7.00;;;7.90;99.90;;;;;;5015896;28;20928;-84
2022/06/03 04:41:12;;;;;;;9.03;7.70;;;8.00;99.90;;;;;;5033819;28;20830;-85
2022/06/03 04:44:00;;;;;;;8.53;7.67;;;8.10;99.90;;;;;;5033284;28;20407;-85
2022/06/03 04:46:34;;;;;;;8.47;7.50;;;8.10;99.90;;;;;;5033395;28;20427;-85
2022/06/03 04:49:33;;;;;;;11.47;8.50;;;8.10;99.90;;;;;;5033467;28;20488;-85
2022/06/03 04:52:27;;;;;;;8.37;7.13;;;8.20;99.90;;;;;;5033194;28;20473;-84
2022/06/03 04:55:42;;;;;;;8.27;7.27;;;8.20;99.90;;;;;;5033198;28;20490;-85
2022/06/03 04:58:22;;;;;;;9.97;8.03;;;8.30;99.90;;;;;;5015363;28;20424;-85
2022/06/03 05:01:14;;;;;;;9.63;7.57;;;8.40;99.90;;;;;;5033040;28;20951;-85
2022/06/03 05:04:13;;;;;;;10.50;8.70;;;8.50;99.90;;;;;;5033032;28;20447;-85
2022/06/03 05:07:19;;;;;;;9.47;7.73;;;8.60;99.90;;;;;;5033147;28;20508;-85
2022/06/03 05:10:10;;;;;;;11.30;8.07;;;8.70;99.90;;;;;;5033108;28;20448;-85
2022/06/03 05:13:15;;;;;;;12.93;8.70;;;8.90;99.90;;;;;;5032639;28;20419;-86
2022/06/03 05:16:17;;;;;;;10.93;8.77;;;9.00;99.90;;;;;;5033022;28;20409;-85
2022/06/03 05:18:51;;;;;;;12.27;9.50;;;9.10;99.90;;;;;;5032946;28;20401;-85
2022/06/03 05:21:32;;;;;;;11.80;10.07;;;9.20;99.90;;;;;;5036781;28;20402;-85
2022/06/03 05:24:44;;;;;;;9.03;8.13;;;9.40;99.90;;;;;;5039420;28;20451;-85
2022/06/03 05:27:40;;;;;;;10.60;9.17;;;9.60;99.90;;;;;;5039007;28;20421;-85
2022/06/03 05:30:44;;;;;;;12.17;9.87;;;9.70;99.90;;;;;;5039275;28;20463;-86
2022/06/03 05:33:34;;;;;;;13.87;10.43;;;9.90;99.90;;;;;;5000784;28;20427;-86
2022/06/03 05:36:28;;;;;;;9.90;8.30;;;10.30;99.90;;;;;;5039484;28;20412;-84
2022/06/03 05:39:25;;;;;;;11.00;7.97;;;10.50;99.90;;;;;;5039343;28;20932;-83
2022/06/03 05:42:24;;;;;;;10.10;7.70;;;10.80;99.90;;;;;;5038935;28;20406;-84
2022/06/03 05:45:15;;;;;;;14.00;8.90;;;10.90;99.90;;;;;;5039111;28;20503;-86
2022/06/03 05:47:40;;;;;;;10.00;8.43;;;11.30;99.90;;;;;;5039214;28;20410;-85
2022/06/03 05:50:29;;;;;;;12.53;8.33;;;11.60;99.90;;;;;;5039337;28;20752;-86
2022/06/03 05:53:21;;;;;;;13.60;9.40;;;11.90;99.90;;;;;;5039234;28;20640;-86
2022/06/03 05:56:21;;;;;;;10.67;7.50;;;12.10;99.90;;;;;;5021492;28;20944;-85
2022/06/03 05:59:20;;;;;;;13.30;8.43;;;12.50;99.90;;;;;;5039097;28;20767;-86
2022/06/03 06:02:07;;;;;;;16.40;9.63;;;13.00;99.90;;;;;;5039176;28;20504;-85
2022/06/03 06:05:10;;;;;;;15.07;7.53;;;13.00;99.90;;;;;;5021342;28;20475;-85
2022/06/03 06:08:17;;;;;;;10.73;8.17;;;12.70;99.90;;;;;;5039094;28;20419;-86
2022/06/03 06:10:53;;;;;;;15.30;8.70;;;12.80;99.90;;;;;;5021384;28;20496;-88
2022/06/03 06:13:59;;;;;;;16.43;8.97;;;13.10;99.90;;;;;;5038698;28;20448;-86
2022/06/03 06:16:37;;;;;;;10.93;8.60;;;13.30;99.90;;;;;;5021279;28;20405;-86
2022/06/03 06:19:04;;;;;;;10.50;7.20;;;13.80;99.90;;;;;;5038957;28;20405;-86
2022/06/03 06:22:00;;;;;;;10.10;6.73;;;14.10;99.90;;;;;;5038981;28;20413;-86
2022/06/03 06:24:35;;;;;;;7.93;4.73;;;14.10;79.40;;;;;;5038986;28;20803;-86
2022/06/03 06:27:29;;;;;;;6.43;4.73;;;14.20;83.60;;;;;;5020820;28;20845;-87
2022/06/03 06:30:11;;;;;;;4.53;4.00;;;14.50;1.00;;;;;;5038820;28;20453;-86
2022/06/03 06:32:49;;;;;;;4.37;2.80;;;15.10;1.00;;;;;;5036036;28;20787;-86
2022/06/03 06:35:47;;;;;;;6.20;4.30;;;15.40;1.00;;;;;;5035856;28;20413;-87
2022/06/03 06:38:24;;;;;;;6.97;4.17;;;15.40;1.00;;;;;;5035687;28;20794;-86
2022/06/03 06:41:35;;;;;;;6.87;3.67;;;15.80;1.00;;;;;;5035694;28;20430;-87
2022/06/03 06:44:15;;;;;;;7.47;3.77;;;16.00;1.00;;;;;;5035616;28;20458;-86
2022/06/03 06:47:02;;;;;;;5.37;2.93;;;16.30;1.00;;;;;;5035666;28;21030;-84
2022/06/03 06:49:41;;;;;;;5.80;3.37;;;17.20;49.30;;;;;;5035735;28;20411;-86
2022/06/03 06:52:21;;;;;;;4.87;3.53;;;20.10;1.00;;;;;;5035471;28;20415;-86
2022/06/03 06:55:15;;;;;;;6.40;3.40;;;21.70;99.90;;;;;;5018040;28;20430;-85
2022/06/03 06:57:51;;;;;;;4.00;2.70;;;22.80;99.90;;;;;;5017412;28;20419;-86
2022/06/03 07:00:27;;;;;;;9.00;3.50;;;23.00;99.90;;;;;;5017544;28;20438;-85
2022/06/03 07:03:27;;;;;;;3.60;2.00;;;23.10;99.90;;;;;;5035395;28;20946;-85
2022/06/03 07:06:01;;;;;;;7.00;2.93;;;23.40;99.90;;;;;;5017626;28;21007;-85
2022/06/03 07:08:38;;;;;;;7.93;2.40;;;23.60;99.90;;;;;;5017545;28;20417;-84
2022/06/03 07:11:09;;;;;;;3.53;1.97;;;23.40;99.90;;;;;;5016974;28;20438;-85
2022/06/03 07:13:59;;;;;;;5.93;2.37;;;23.30;99.90;;;;;;5035156;28;20409;-86
2022/06/03 07:20:01;;;;;;;3.20;2.23;;;23.10;99.90;;;;;;5035074;28;20998;-87
2022/06/03 07:22:38;;;;;;;2.13;1.43;;;24.00;99.90;;;;;;5035186;28;20785;-85
2022/06/03 07:25:24;;;;;;;5.07;2.40;;;24.40;99.90;;;;;;5034923;28;20468;-85
2022/06/03 07:28:07;;;;;;;5.03;2.50;;;24.80;99.70;;;;;;5034443;28;20416;-83
2022/06/03 07:30:44;;;;;;;3.30;2.40;;;25.20;99.90;;;;;;5034447;28;20472;-84
2022/06/03 07:33:33;;;;;;;4.10;2.00;;;24.70;97.60;;;;;;5040337;28;20405;-85
2022/06/03 07:36:06;;;;;;;4.50;2.70;;;24.60;95.90;;;;;;5037998;28;20467;-83
2022/06/03 07:38:40;;;;;;;4.73;2.43;;;24.90;95.70;;;;;;5035112;28;20413;-82
2022/06/03 07:41:29;;;;;;;3.83;2.07;;;25.00;99.90;;;;;;5034217;28;20492;-82
2022/06/03 07:44:34;;;;;;;3.20;1.87;;;24.90;88.20;;;;;;4983691;28;20428;-81
2022/06/03 07:47:03;;;;;;;3.60;2.40;;;25.30;87.00;;;;;;5019935;28;20921;-81
2022/06/03 07:49:34;;;;;;;3.23;2.20;;;25.20;81.30;;;;;;5034354;28;20948;-82
2022/06/03 07:52:11;;;;;;;5.10;3.00;;;25.20;81.90;;;;;;5034360;28;20405;-85
2022/06/03 07:54:40;;;;;;;5.23;2.30;;;25.40;78.10;;;;;;5034712;28;20405;-84
2022/06/03 07:57:19;;;;;;;5.00;1.83;;;25.60;74.50;;;;;;5016354;28;20466;-84
2022/06/03 07:59:45;;;;;;;4.97;1.90;;;25.50;70.30;;;;;;5034213;28;20922;-83
2022/06/03 08:02:19;;;;;;;5.77;2.53;;;25.80;68.10;;;;;;5034284;28;20479;-85
2022/06/03 08:05:05;;;;;;;3.77;1.57;;;25.90;64.00;;;;;;5034155;28;20529;-86
2022/06/03 08:13:14;;;;;;;2.63;1.30;;;26.30;65.70;;;;;;5044648;28;20427;-88
2022/06/03 08:16:10;;;;;;;2.47;1.20;;;26.80;68.90;;;;;;5052711;28;20476;-84
2022/06/03 08:18:42;;;;;;;3.73;1.40;;;26.60;58.90;;;;;;5015721;28;20425;-86
2022/06/03 08:21:11;;;;;;;5.47;2.00;;;25.40;34.00;;;;;;5033889;28;20421;-87
2022/06/03 08:23:38;;;;;;;2.80;1.73;;;25.50;36.90;;;;;;5033914;28;20421;-87
2022/06/03 08:26:24;;;;;;;2.73;1.20;;;26.40;46.80;;;;;;5033418;28;20469;-87
2022/06/03 08:29:01;;;;;;;2.33;1.90;;;26.70;46.80;;;;;;5033608;28;20405;-87
2022/06/03 08:31:26;;;;;;;2.53;1.60;;;26.50;39.00;;;;;;5015704;28;20492;-88
2022/06/03 08:33:58;;;;;;;5.13;1.60;;;26.30;34.40;;;;;;5033611;28;20409;-85
2022/06/03 08:36:29;;;;;;;2.70;1.83;;;26.40;37.20;;;;;;5033804;28;20193;-86
2022/06/03 08:38:57;;;;;;;2.47;1.83;;;26.60;39.90;;;;;;5035444;28;20509;-86
2022/06/03 08:41:59;;;;;;;2.73;1.47;;;26.40;36.80;;;;;;5035989;28;20414;-86
2022/06/03 08:44:46;;;;;;;3.13;1.80;;;26.70;41.20;;;;;;5033803;28;20424;-87
2022/06/03 08:47:31;;;;;;;2.67;1.40;;;26.10;34.10;;;;;;5034206;28;20394;-86
2022/06/03 08:50:01;;;;;;;5.53;1.87;;;26.60;41.10;;;;;;5053535;28;20413;-86
2022/06/03 08:52:57;;;;;;;5.27;2.77;;;26.40;29.90;;;;;;5028982;28;21026;-87
2022/06/03 08:55:33;;;;;;;3.07;1.40;;;26.20;26.40;;;;;;5032581;28;20469;-85
2022/06/03 08:58:28;;;;;;;3.10;1.23;;;26.60;31.00;;;;;;5032472;28;20416;-84
2022/06/03 09:04:20;;;;;;;2.40;1.57;;;27.50;38.60;;;;;;5018102;28;20448;-82
2022/06/03 09:07:13;;;;;;;2.13;1.67;;;27.30;33.10;;;;;;5032873;28;20515;-82
2022/06/03 09:09:56;;;;;;;8.57;3.53;;;27.30;34.70;;;;;;5033059;28;20917;-82
2022/06/03 09:12:28;;;;;;;6.40;2.13;;;27.00;33.30;;;;;;5014894;28;20495;-83
2022/06/03 09:14:55;;;;;;;169.53;63.73;;;27.10;29.60;;;;;;5032836;28;20472;-82
2022/06/03 09:17:48;;;;;;;4.50;2.50;;;27.60;38.20;;;;;;5034076;28;20420;-82
2022/06/03 09:20:21;;;;;;;4.60;1.20;;;26.90;28.80;;;;;;5034488;28;20771;-85
2022/06/03 09:22:47;;;;;;;2.30;1.47;;;27.10;29.30;;;;;;5033592;28;20415;-82
2022/06/03 09:25:16;;;;;;;2.63;1.17;;;27.10;26.80;;;;;;5032833;28;20417;-83
2022/06/03 09:27:43;;;;;;;1.63;1.10;;;27.30;30.20;;;;;;5032553;28;20536;-83
2022/06/03 09:30:12;;;;;;;1.60;1.00;;;27.10;26.20;;;;;;5032775;28;20875;-83
2022/06/03 09:32:45;;;;;;;2.60;1.17;;;27.50;26.30;;;;;;5032829;28;20413;-83
2022/06/03 09:35:15;;;;;;;1.53;0.83;;;27.80;31.90;;;;;;5032622;28;20500;-86
2022/06/03 09:37:47;;;;;;;2.50;1.13;;;27.40;24.80;;;;;;5034700;28;20796;-85
2022/06/03 09:40:39;;;;;;;2.60;1.00;;;27.30;23.10;;;;;;5045827;28;20409;-85
2022/06/03 09:43:25;;;;;;;5.00;0.70;;;27.30;25.00;;;;;;5036849;28;20406;-86
2022/06/03 09:45:56;;;;;;;1.87;0.63;;;27.60;24.00;;;;;;5032008;28;20420;-85
2022/06/03 09:48:28;;;;;;;2.67;0.57;;;27.70;25.50;;;;;;5032387;28;20532;-85
2022/06/03 09:50:57;;;;;;;5.50;1.27;;;27.30;20.60;;;;;;5015695;28;20413;-85
2022/06/03 09:53:26;;;;;;;2.47;0.67;;;27.20;19.90;;;;;;5032845;28;20412;-84
2022/06/03 09:55:55;;;;;;;1.00;0.50;;;27.40;20.30;;;;;;5031835;28;20991;-85
2022/06/03 09:58:28;;;;;;;1.83;0.43;;;27.00;13.00;;;;;;5032584;28;20405;-85
2022/06/03 10:00:56;;;;;;;2.20;0.60;;;27.50;18.50;;;;;;5032640;28;20523;-85
2022/06/03 10:03:27;;;;;;;1.23;0.47;;;27.30;12.50;;;;;;5033307;28;20421;-85
2022/06/03 10:05:56;;;;;;;1.80;0.47;;;27.20;12.40;;;;;;5032436;28;20916;-85
2022/06/03 10:08:28;;;;;;;1.73;0.70;;;27.30;13.80;;;;;;5036112;28;20470;-85
2022/06/03 10:13:42;;;;;;;2.27;0.90;;;27.60;15.00;;;;;;5036364;28;20504;-83
2022/06/03 10:16:10;;;;;;;1.53;0.37;;;27.80;11.60;;;;;;5018127;28;20443;-85
2022/06/03 10:18:42;;;;;;;2.90;0.60;;;28.10;16.30;;;;;;5035940;28;20775;-84
2022/06/03 10:21:08;;;;;;;2.03;0.60;;;28.40;17.30;;;;;;5035887;28;20439;-85
2022/06/03 10:23:45;;;;;;;0.93;0.20;;;28.40;15.70;;;;;;5035682;28;20400;-84
2022/06/03 10:26:22;;;;;;;1.00;0.60;;;28.00;10.80;;;;;;5017597;28;20658;-84
2022/06/03 10:28:50;;;;;;;1.73;0.50;;;27.70;7.60;;;;;;5035626;28;20404;-84
2022/06/03 10:31:19;;;;;;;2.03;0.40;;;27.80;8.40;;;;;;5035369;28;20448;-83
2022/06/03 10:34:00;;;;;;;1.30;0.50;;;28.30;12.30;;;;;;5035497;28;20417;-84
2022/06/03 10:36:39;;;;;;;1.23;0.33;;;28.50;13.70;;;;;;5035628;28;20436;-84
2022/06/03 10:39:06;;;;;;;1.17;0.47;;;28.40;10.40;;;;;;5035994;28;20420;-85
2022/06/03 10:41:40;;;;;;;1.07;0.50;;;28.10;9.30;;;;;;5035124;28;20429;-84
2022/06/03 10:44:16;;;;;;;0.90;0.30;;;27.60;5.20;;;;;;5035180;28;20452;-85
2022/06/03 10:46:59;;;;;;;2.60;0.60;;;27.80;5.10;;;;;;5025787;28;20429;-85
2022/06/03 10:49:27;;;;;;;1.77;0.60;;;28.10;6.90;;;;;;5035577;28;20495;-83
2022/06/03 11:03:20;;;;;;;2.50;0.80;;;28.30;1.00;;;;;;5035517;28;20408;-85
2022/06/03 11:05:46;;;;;;;0.60;0.30;;;28.10;1.00;;;;;;5035020;28;20408;-84
2022/06/03 11:08:13;;;;;;;1.33;0.40;;;28.00;1.00;;;;;;5035087;28;20409;-83
2022/06/03 11:10:50;;;;;;;2.57;0.60;;;28.20;1.00;;;;;;5034569;28;20417;-83
2022/06/03 11:13:31;;;;;;;1.43;0.63;;;28.10;1.00;;;;;;5025288;28;20429;-83
2022/06/03 11:16:12;;;;;;;1.23;0.40;;;28.20;1.00;;;;;;5015117;28;20477;-83
2022/06/03 11:19:16;;;;;;;1.17;0.40;;;28.30;1.00;;;;;;5014440;28;20460;-82
2022/06/03 11:21:41;;;;;;;2.33;0.30;;;28.30;1.00;;;;;;5001814;28;20798;-83
2022/06/03 11:24:09;;;;;;;0.80;0.43;;;27.80;1.00;;;;;;5014831;28;20410;-82
2022/06/03 11:26:38;;;;;;;1.70;0.30;;;28.00;1.00;;;;;;5013342;28;20175;-81
2022/06/03 11:29:16;;;;;;;2.40;0.50;;;27.80;1.00;;;;;;5014903;28;20418;-80
2022/06/03 11:31:46;;;;;;;1.30;0.47;;;27.90;1.00;;;;;;4993601;28;20449;-80
2022/06/03 11:34:23;;;;;;;1.17;0.50;;;28.00;1.00;;;;;;5014497;28;20457;-80
2022/06/03 11:37:11;;;;;;;12.77;7.37;;;28.00;1.00;;;;;;5014626;28;20421;-80
2022/06/03 11:39:46;;;;;;;1.63;0.50;;;28.20;1.00;;;;;;5014463;28;20409;-78
2022/06/03 11:42:17;;;;;;;1.60;0.43;;;27.90;1.00;;;;;;5014156;28;20417;-81
2022/06/03 11:44:49;;;;;;;1.17;0.27;;;28.10;1.00;;;;;;5014453;28;20501;-81
2022/06/03 11:47:34;;;;;;;0.67;0.30;;;28.20;1.00;;;;;;5014167;28;20410;-80
2022/06/03 11:49:59;;;;;;;1.00;0.30;;;27.90;1.00;;;;;;5014399;28;20417;-81
2022/06/03 11:52:25;;;;;;;0.93;0.53;;;27.80;1.00;;;;;;5014311;28;20422;-80
2022/06/03 11:54:52;;;;;;;1.20;0.40;;;27.80;1.00;;;;;;5014131;28;20274;-78
2022/06/03 11:57:18;;;;;;;0.70;0.30;;;27.60;1.00;;;;;;5013836;28;20174;-80
2022/06/03 11:59:56;;;;;;;2.30;0.30;;;27.40;1.00;;;;;;5013964;28;20422;-80
2022/06/03 12:02:44;;;;;;;0.80;0.43;;;27.70;1.00;;;;;;5013617;28;20410;-79
2022/06/03 12:05:21;;;;;;;1.43;0.43;;;27.40;1.00;;;;;;5014137;28;20413;-81
2022/06/03 12:08:14;;;;;;;0.40;0.20;;;27.40;1.00;;;;;;5014002;28;20501;-79
2022/06/03 12:10:58;;;;;;;1.17;0.40;;;27.40;1.00;;;;;;5013601;28;20429;-80
2022/06/03 12:13:31;;;;;;;0.87;0.40;;;27.20;1.00;;;;;;5013928;28;20492;-81
2022/06/03 12:15:56;;;;;;;0.60;0.40;;;27.50;1.00;;;;;;5013789;28;20469;-78
2022/06/03 12:18:31;;;;;;;0.43;0.30;;;27.50;1.00;;;;;;5013810;28;20418;-77
2022/06/03 12:20:57;;;;;;;0.60;0.20;;;27.30;1.00;;;;;;5013797;28;20182;-77
2022/06/03 12:23:23;;;;;;;0.60;0.27;;;27.40;1.00;;;;;;5013719;28;20911;-81
2022/06/03 12:25:48;;;;;;;0.67;0.20;;;27.20;1.00;;;;;;4995542;28;20428;-78
2022/06/03 12:28:29;;;;;;;0.67;0.63;;;27.20;1.00;;;;;;5013449;28;20207;-78
2022/06/03 12:30:59;;;;;;;1.40;0.43;;;27.10;1.00;;;;;;5012751;28;20683;-80
2022/06/03 12:33:33;;;;;;;1.67;0.40;;;27.40;1.00;;;;;;5013447;28;20464;-77
2022/06/03 12:36:06;;;;;;;2.73;0.40;;;27.20;1.00;;;;;;5013597;28;20539;-80
2022/06/03 12:38:34;;;;;;;1.90;0.40;;;27.30;1.00;;;;;;5013256;28;20472;-78
2022/06/03 12:41:05;;;;;;;0.70;0.50;;;27.00;1.00;;;;;;5012728;28;20422;-81
2022/06/03 12:43:55;;;;;;;0.73;0.37;;;26.90;1.00;;;;;;5013115;28;20421;-77
2022/06/03 12:46:36;;;;;;;0.90;0.53;;;27.20;1.00;;;;;;5013367;28;20475;-82
2022/06/03 12:49:04;;;;;;;1.10;0.33;;;27.10;1.00;;;;;;5013376;28;20437;-81
2022/06/03 12:51:33;;;;;;;0.60;0.30;;;27.20;1.00;;;;;;5013027;28;20844;-81
2022/06/03 12:54:12;;;;;;;0.47;0.20;;;27.20;1.00;;;;;;5013267;28;20969;-82
2022/06/03 12:56:45;;;;;;;1.43;0.47;;;27.10;1.00;;;;;;4995352;28;20433;-82
2022/06/03 12:59:23;;;;;;;0.60;0.30;;;27.30;1.00;;;;;;5013260;28;20461;-85
2022/06/03 13:02:27;;;;;;;0.70;0.40;;;27.30;1.00;;;;;;5013331;28;20429;-86
2022/06/03 13:04:52;;;;;;;1.40;0.50;;;27.10;1.00;;;;;;5024739;28;20436;-83
2022/06/03 13:07:27;;;;;;;1.37;0.47;;;26.80;1.00;;;;;;5024586;28;20460;-81
2022/06/03 13:09:58;;;;;;;1.03;0.30;;;26.80;1.00;;;;;;5032265;28;20170;-83
2022/06/03 13:12:31;;;;;;;0.67;0.30;;;26.50;1.00;;;;;;5034443;28;20413;-87
2022/06/03 13:15:29;;;;;;;1.03;0.50;;;25.90;1.00;;;;;;5036394;28;20465;-83
2022/06/03 13:21:02;;;;;;;1.60;0.40;;;26.20;1.00;;;;;;5038874;28;20421;-79
2022/06/03 13:23:38;;;;;;;0.40;0.20;;;26.00;1.00;;;;;;5037926;28;20437;-85
2022/06/03 13:26:22;;;;;;;1.03;0.30;;;26.00;1.00;;;;;;5038568;28;20427;-83
2022/06/03 13:28:48;;;;;;;1.10;0.37;;;26.00;1.00;;;;;;5032987;28;20414;-78
2022/06/03 13:31:24;;;;;;;1.00;0.50;;;26.00;1.00;;;;;;5032137;28;20795;-85
2022/06/03 13:34:10;;;;;;;0.70;0.33;;;26.50;1.00;;;;;;5030253;28;20858;-79
2022/06/03 13:36:52;;;;;;;0.60;0.30;;;26.20;1.00;;;;;;5031797;28;20421;-78
2022/06/03 13:39:26;;;;;;;1.00;0.47;;;25.90;1.00;;;;;;5032436;28;20535;-79
2022/06/03 13:45:06;;;;;;;2.63;0.60;;;25.60;1.00;;;;;;5036595;28;20554;-78
2022/06/03 13:47:36;;;;;;;0.80;0.40;;;25.70;1.00;;;;;;5035697;28;20516;-86
2022/06/03 13:50:23;;;;;;;0.93;0.40;;;25.40;1.00;;;;;;5036358;28;20817;-85
2022/06/03 13:52:54;;;;;;;1.27;0.30;;;25.60;1.00;;;;;;5036340;28;20897;-86
2022/06/03 13:56:00;;;;;;;1.87;0.40;;;25.20;1.00;;;;;;5033956;28;20472;-83
2022/06/03 13:58:42;;;;;;;1.37;1.20;;;24.70;1.00;;;;;;5016825;28;21004;-81
2022/06/03 14:01:14;;;;;;;1.20;0.43;;;25.10;1.00;;;;;;5025200;28;20432;-79
2022/06/03 14:03:52;;;;;;;1.23;0.53;;;25.10;1.00;;;;;;5036531;28;20406;-82
2022/06/03 14:06:47;;;;;;;1.50;0.97;;;25.20;1.00;;;;;;5035170;28;20417;-83
2022/06/03 14:09:27;;;;;;;1.00;0.63;;;25.50;1.00;;;;;;5015174;28;20934;-85
2022/06/03 14:11:55;;;;;;;1.67;0.80;;;25.20;1.00;;;;;;5035257;28;20421;-83
2022/06/03 14:14:37;;;;;;;1.30;0.40;;;25.00;1.00;;;;;;5028638;28;20457;-82
2022/06/03 14:17:27;;;;;;;1.50;0.50;;;24.80;1.00;;;;;;5038980;28;20461;-86
2022/06/03 14:20:13;;;;;;;1.57;0.40;;;24.70;1.00;;;;;;5035711;28;20416;-83
2022/06/03 14:23:12;;;;;;;1.30;0.87;;;24.90;1.00;;;;;;5017994;28;20816;-77
2022/06/03 14:25:47;;;;;;;1.37;0.50;;;24.90;1.00;;;;;;5035326;28;20413;-76
2022/06/03 14:28:24;;;;;;;0.97;0.40;;;25.00;1.00;;;;;;5035639;28;20421;-78
2022/06/03 14:31:11;;;;;;;1.10;0.73;;;25.10;1.00;;;;;;5035046;28;20487;-85
2022/06/03 14:33:44;;;;;;;1.57;0.57;;;25.00;1.00;;;;;;5034408;28;20908;-79
2022/06/03 14:36:11;;;;;;;1.63;0.60;;;25.10;1.00;;;;;;5015665;28;20600;-85
2022/06/03 14:38:41;;;;;;;0.80;0.43;;;24.90;1.00;;;;;;5015340;28;20509;-82
2022/06/03 14:41:13;;;;;;;1.77;0.80;;;24.90;1.00;;;;;;5015231;28;20421;-82
2022/06/03 14:43:40;;;;;;;1.20;0.67;;;24.30;1.00;;;;;;5015494;28;20976;-76
2022/06/03 14:46:12;;;;;;;1.60;0.80;;;24.70;1.00;;;;;;5015469;28;20913;-77
2022/06/03 14:48:42;;;;;;;1.37;0.40;;;24.60;1.00;;;;;;5015354;28;20808;-83
2022/06/03 14:51:12;;;;;;;2.50;0.50;;;24.30;1.00;;;;;;5015422;28;20449;-76